createdAt,value
2018-07-20T00:00:21.499Z,99424.66
2018-07-20T00:02:52.847Z,99462.61
2018-07-20T00:05:23.065Z,99463.17
2018-07-20T00:07:53.039Z,99461.57
2018-07-20T00:10:22.709Z,99452.55
2018-07-20T00:12:52.841Z,99452.55
2018-07-20T00:15:22.376Z,99449.36
2018-07-20T00:17:52.163Z,99441.41
2018-07-20T00:20:21.979Z,99447.26
2018-07-20T00:22:52.183Z,99445.13
2018-07-20T00:25:23.078Z,99439.01
2018-07-20T00:27:53.837Z,99441.16
2018-07-20T00:30:23.331Z,99449.97
2018-07-20T00:32:53.307Z,99445.22
2018-07-20T00:35:23.295Z,99445.75
2018-07-20T00:37:53.733Z,99439.66
2018-07-20T00:40:23.296Z,99439.94
2018-07-20T00:42:53.283Z,99438.09
2018-07-20T00:45:22.848Z,99437.28
2018-07-20T00:47:53.324Z,99435.69
2018-07-20T00:50:23.488Z,99426.38
2018-07-20T00:52:54.304Z,99429.58
2018-07-20T00:55:24.298Z,99426.94
2018-07-20T00:57:54.565Z,99434.38
2018-07-20T01:00:24.238Z,99432.00
2018-07-20T01:02:54.621Z,99433.89
2018-07-20T01:05:26.125Z,99429.38
2018-07-20T01:07:56.031Z,99424.06
2018-07-20T01:10:25.583Z,99427.80
2018-07-20T01:12:55.700Z,99425.16
2018-07-20T01:15:25.681Z,99425.69
2018-07-20T01:17:56.336Z,99427.27
2018-07-20T01:20:26.466Z,99418.49
2018-07-20T01:22:56.751Z,99413.14
2018-07-20T01:25:26.210Z,99413.41
2018-07-20T01:27:56.887Z,99419.23
2018-07-20T01:30:26.911Z,99421.58
2018-07-20T01:32:58.255Z,99418.43
2018-07-20T01:35:28.367Z,99414.16
2018-07-20T01:37:58.080Z,99411.75
2018-07-20T01:40:28.464Z,99415.22
2018-07-20T01:42:59.660Z,99414.69
2018-07-20T01:45:30.671Z,99410.97
2018-07-20T01:48:00.649Z,99412.56
2018-07-20T01:50:30.431Z,99408.84
2018-07-20T01:53:00.942Z,99331.67
2018-07-20T01:55:31.118Z,99415.98
2018-07-20T01:58:01.291Z,99411.46
2018-07-20T02:00:31.425Z,99415.71
2018-07-20T02:03:01.515Z,99408.27
2018-07-20T02:05:32.484Z,99408.23
2018-07-20T02:08:02.423Z,99414.36
2018-07-20T02:10:32.339Z,99407.46
2018-07-20T02:13:02.948Z,99402.42
2018-07-20T02:15:32.965Z,99408.77
2018-07-20T02:18:02.695Z,99407.20
2018-07-20T02:20:33.068Z,99403.39
2018-07-20T02:23:04.155Z,99410.86
2018-07-20T02:25:34.759Z,99400.80
2018-07-20T02:28:05.228Z,99402.43
2018-07-20T02:30:35.390Z,99402.43
2018-07-20T02:33:05.805Z,99399.47
2018-07-20T02:35:36.182Z,99399.17
2018-07-20T02:38:06.889Z,99397.55
2018-07-20T02:40:37.968Z,99397.02
2018-07-20T02:43:08.075Z,99392.20
2018-07-20T02:45:39.670Z,99390.13
2018-07-20T02:48:09.785Z,99390.10
2018-07-20T02:50:40.387Z,99384.25
2018-07-20T02:53:10.812Z,99386.86
2018-07-20T02:55:42.793Z,99382.30
2018-07-20T02:58:14.763Z,99384.13
2018-07-20T03:00:45.749Z,99383.33
2018-07-20T03:03:15.447Z,99381.20
2018-07-20T03:05:44.870Z,99379.61
2018-07-20T03:08:14.702Z,99381.48
2018-07-20T03:10:44.594Z,99385.98
2018-07-20T03:13:14.446Z,99388.36
2018-07-20T03:15:44.838Z,99394.67
2018-07-20T03:18:14.740Z,99390.91
2018-07-20T03:20:44.861Z,99390.60
2018-07-20T03:23:14.260Z,99388.97
2018-07-20T03:25:44.194Z,99391.56
2018-07-20T03:28:16.084Z,99389.19
2018-07-20T03:30:46.620Z,99392.64
2018-07-20T03:33:17.082Z,99385.19
2018-07-20T03:35:46.575Z,99365.02
2018-07-20T03:38:17.023Z,99375.70
2018-07-20T03:40:47.083Z,99382.57
2018-07-20T03:43:16.551Z,99381.70
2018-07-20T03:45:46.859Z,99382.23
2018-07-20T03:48:17.015Z,99384.33
2018-07-20T03:50:46.752Z,99379.88
2018-07-20T03:53:16.325Z,99378.41
2018-07-20T03:55:46.135Z,99375.80
2018-07-20T03:58:15.790Z,99368.93
2018-07-20T04:00:46.344Z,99372.34
2018-07-20T04:03:15.778Z,99368.09
2018-07-20T04:05:45.705Z,99375.05
2018-07-20T04:08:16.905Z,99372.96
2018-07-20T04:10:48.757Z,99370.63
2018-07-20T04:13:18.586Z,99365.33
2018-07-20T04:15:51.436Z,99368.53
2018-07-20T04:18:22.084Z,99368.83
2018-07-20T04:20:53.195Z,99375.26
2018-07-20T04:23:23.136Z,99371.13
2018-07-20T04:25:53.305Z,99374.81
2018-07-20T04:28:23.324Z,99380.38
2018-07-20T04:30:53.452Z,99370.83
2018-07-20T04:33:23.180Z,99369.76
2018-07-20T04:35:53.709Z,99371.56
2018-07-20T04:38:23.476Z,99364.14
2018-07-20T04:40:53.292Z,99370.20
2018-07-20T04:43:23.441Z,99373.96
2018-07-20T04:45:53.234Z,99370.31
2018-07-20T04:48:23.776Z,99367.16
2018-07-20T04:51:05.849Z,99340.89
2018-07-20T04:53:37.149Z,99358.70
2018-07-20T04:56:09.035Z,99356.38
2018-07-20T04:58:39.087Z,99357.47
2018-07-20T05:01:08.980Z,99356.50
2018-07-20T05:03:39.092Z,99352.80
2018-07-20T05:06:09.327Z,99353.07
2018-07-20T05:08:39.310Z,99357.61
2018-07-20T05:11:09.374Z,99352.05
2018-07-20T05:13:40.047Z,99357.57
2018-07-20T05:16:10.676Z,99352.54
2018-07-20T05:18:40.660Z,99351.24
2018-07-20T05:21:11.061Z,99356.56
2018-07-20T05:23:40.792Z,99350.22
2018-07-20T05:26:11.165Z,99344.36
2018-07-20T05:28:40.908Z,99345.98
2018-07-20T05:31:11.284Z,99346.50
2018-07-20T05:33:41.177Z,99351.56
2018-07-20T05:36:10.629Z,99336.67
2018-07-20T05:38:40.139Z,99342.28
2018-07-20T05:41:10.210Z,99345.44
2018-07-20T05:43:40.126Z,99347.88
2018-07-20T05:46:11.615Z,99348.67
2018-07-20T05:48:41.453Z,99340.66
2018-07-20T05:51:11.362Z,99341.97
2018-07-20T05:53:41.415Z,99342.52
2018-07-20T05:56:12.137Z,99335.56
2018-07-20T05:58:41.759Z,99341.87
2018-07-20T06:01:11.597Z,99338.92
2018-07-20T06:03:41.988Z,99338.61
2018-07-20T06:06:11.831Z,99337.69
2018-07-20T06:08:42.638Z,99336.09
2018-07-20T06:11:12.839Z,99328.53
2018-07-20T06:13:42.640Z,99330.31
2018-07-20T06:16:12.284Z,99332.31
2018-07-20T06:18:42.176Z,99327.45
2018-07-20T06:21:12.754Z,99296.85
2018-07-20T06:23:42.512Z,99325.55
2018-07-20T06:26:13.080Z,99327.30
2018-07-20T06:28:45.023Z,99312.80
2018-07-20T06:31:15.623Z,99332.81
2018-07-20T06:33:47.246Z,99322.14
2018-07-20T06:36:17.570Z,99323.13
2018-07-20T06:38:47.309Z,99325.82
2018-07-20T06:41:16.949Z,99326.92
2018-07-20T06:43:46.827Z,99328.30
2018-07-20T06:46:17.232Z,99322.63
2018-07-20T06:48:47.205Z,99322.50
2018-07-20T06:51:18.266Z,99318.72
2018-07-20T06:53:48.399Z,99317.56
2018-07-20T06:56:18.561Z,99319.78
2018-07-20T06:58:49.074Z,99319.70
2018-07-20T07:01:19.690Z,99319.48
2018-07-20T07:03:49.747Z,99319.88
2018-07-20T07:06:23.092Z,99316.69
2018-07-20T07:08:59.688Z,99324.69
2018-07-20T07:11:37.745Z,99317.22
2018-07-20T07:14:08.960Z,99318.30
2018-07-20T07:16:41.987Z,99315.77
2018-07-20T07:19:14.595Z,99310.76
2018-07-20T07:21:45.207Z,99309.54
2018-07-20T07:24:18.429Z,99307.11
2018-07-20T07:26:51.081Z,99309.92
2018-07-20T07:29:28.148Z,99306.42
2018-07-20T07:31:58.469Z,99305.55
2018-07-20T07:34:31.550Z,99300.66
2018-07-20T07:37:05.141Z,99302.84
2018-07-20T07:39:40.720Z,99294.27
2018-07-20T07:42:13.599Z,99297.56
2018-07-20T07:44:44.330Z,99299.50
2018-07-20T07:47:14.767Z,99296.35
2018-07-20T07:49:45.231Z,99309.19
2018-07-20T07:52:15.964Z,99296.08
2018-07-20T07:54:47.598Z,99295.53
2018-07-20T07:57:21.061Z,99292.34
2018-07-20T07:59:55.453Z,99292.80
2018-07-20T08:02:25.719Z,99289.50
2018-07-20T08:04:59.926Z,99285.63
2018-07-20T08:07:32.101Z,99280.27
2018-07-20T08:10:03.037Z,99290.50
2018-07-20T08:12:35.456Z,99286.64
2018-07-20T08:15:08.925Z,99290.92
2018-07-20T08:17:44.446Z,99288.76
2018-07-20T08:20:16.522Z,99282.13
2018-07-20T08:22:49.472Z,99283.63
2018-07-20T08:25:22.191Z,99280.73
2018-07-20T08:27:52.187Z,99286.76
2018-07-20T08:30:22.927Z,99284.55
2018-07-20T08:32:55.069Z,99282.55
2018-07-20T08:35:25.474Z,99276.28
2018-07-20T08:37:56.621Z,99278.73
2018-07-20T08:40:27.423Z,99277.47
2018-07-20T08:42:57.366Z,99268.58
2018-07-20T08:45:27.893Z,99276.59
2018-07-20T08:47:58.064Z,99270.98
2018-07-20T08:50:29.802Z,99276.34
2018-07-20T08:53:03.156Z,99277.77
2018-07-20T08:55:39.698Z,99237.63
2018-07-20T08:58:10.584Z,99270.36
2018-07-20T09:00:45.560Z,99259.38
2018-07-20T09:03:16.592Z,99256.68
2018-07-20T09:05:47.726Z,99264.38
2018-07-20T09:08:23.335Z,99253.98
2018-07-20T09:10:55.448Z,99252.50
2018-07-20T09:13:27.489Z,99252.73
2018-07-20T09:15:58.324Z,99246.45
2018-07-20T09:18:28.660Z,99249.33
2018-07-20T09:20:58.292Z,99241.62
2018-07-20T09:23:29.258Z,99236.13
2018-07-20T09:25:59.598Z,99200.47
2018-07-20T09:28:30.985Z,99229.85
2018-07-20T09:31:03.966Z,99229.20
2018-07-20T09:33:35.280Z,99229.95
2018-07-20T09:36:05.393Z,99222.87
2018-07-20T09:38:36.237Z,99195.54
2018-07-20T09:41:09.937Z,99221.86
2018-07-20T09:43:42.068Z,99222.32
2018-07-20T09:46:12.718Z,99220.97
2018-07-20T09:48:42.759Z,99214.68
2018-07-20T09:51:14.661Z,99211.59
2018-07-20T09:53:46.804Z,99215.97
2018-07-20T09:56:17.409Z,99209.52
2018-07-20T09:58:51.796Z,99212.28
2018-07-20T10:01:27.835Z,99205.44
2018-07-20T10:04:03.031Z,99206.71
2018-07-20T10:06:35.514Z,99203.67
2018-07-20T10:09:12.992Z,99199.81
2018-07-20T10:11:43.304Z,99198.13
2018-07-20T10:14:15.561Z,99202.17
2018-07-20T10:16:46.395Z,99196.69
2018-07-20T10:19:16.163Z,99199.62
2018-07-20T10:21:45.842Z,99161.69
2018-07-20T10:24:16.992Z,99161.06
2018-07-20T10:26:46.602Z,99187.02
2018-07-20T10:29:16.836Z,99187.55
2018-07-20T10:31:47.213Z,99194.34
2018-07-20T10:34:16.934Z,99186.34
2018-07-20T10:36:46.895Z,99186.20
2018-07-20T10:39:18.922Z,99160.44
2018-07-20T10:41:49.017Z,99184.95
2018-07-20T10:44:20.215Z,99178.80
2018-07-20T10:46:50.331Z,99177.28
2018-07-20T10:49:20.579Z,99170.63
2018-07-20T10:51:54.338Z,99174.96
2018-07-20T10:54:26.073Z,99176.61
2018-07-20T10:56:56.213Z,99167.89
2018-07-20T10:59:26.434Z,99167.56
2018-07-20T11:01:56.251Z,99164.42
2018-07-20T11:04:25.917Z,99157.66
2018-07-20T11:06:56.329Z,99156.23
2018-07-20T11:09:26.762Z,99156.92
2018-07-20T11:11:56.487Z,99153.78
2018-07-20T11:14:26.596Z,99159.44
2018-07-20T11:16:57.124Z,99148.80
2018-07-20T11:19:26.996Z,99150.89
2018-07-20T11:21:58.783Z,99144.50
2018-07-20T11:24:28.600Z,99141.97
2018-07-20T11:26:58.413Z,99153.27
2018-07-20T11:29:29.053Z,99156.63
2018-07-20T11:32:00.671Z,99147.34
2018-07-20T11:34:30.295Z,99140.11
2018-07-20T11:37:00.143Z,99140.88
2018-07-20T11:39:31.199Z,99138.66
2018-07-20T11:42:01.348Z,99129.76
2018-07-20T11:44:32.177Z,99134.53
2018-07-20T11:47:02.331Z,99128.66
2018-07-20T11:49:32.553Z,99127.73
2018-07-20T11:52:02.682Z,99113.82
2018-07-20T11:54:34.708Z,99107.04
2018-07-20T11:57:04.804Z,99102.11
2018-07-20T11:59:35.176Z,99097.95
2018-07-20T12:02:04.808Z,99106.94
2018-07-20T12:04:35.084Z,99098.12
2018-07-20T12:07:05.043Z,99089.67
2018-07-20T12:09:34.775Z,99089.42
2018-07-20T12:12:04.378Z,99086.17
2018-07-20T12:14:34.122Z,99092.28
2018-07-20T12:17:04.316Z,99080.74
2018-07-20T12:19:34.350Z,99081.56
2018-07-20T12:22:04.535Z,99085.95
2018-07-20T12:24:34.743Z,99089.31
2018-07-20T12:27:06.147Z,99074.48
2018-07-20T12:29:36.121Z,99075.36
2018-07-20T12:32:05.653Z,99052.45
2018-07-20T12:34:36.476Z,99076.03
2018-07-20T12:37:06.622Z,99071.25
2018-07-20T12:39:36.637Z,99077.29
2018-07-20T12:42:07.928Z,99066.51
2018-07-20T12:44:37.777Z,99060.23
2018-07-20T12:47:07.680Z,99067.60
2018-07-20T12:49:38.439Z,99066.64
2018-07-20T12:52:08.304Z,99062.59
2018-07-20T12:54:38.735Z,99054.55
2018-07-20T12:57:09.211Z,99047.75
2018-07-20T12:59:38.849Z,99042.42
2018-07-20T13:02:08.633Z,99034.98
2018-07-20T13:04:38.274Z,99036.67
2018-07-20T13:07:07.763Z,99032.48
2018-07-20T13:09:39.005Z,99030.65
2018-07-20T13:12:09.974Z,99022.17
2018-07-20T13:14:39.494Z,99022.72
2018-07-20T13:17:09.442Z,99019.63
2018-07-20T13:19:39.308Z,99016.73
2018-07-20T13:22:09.681Z,99016.11
2018-07-20T13:24:40.097Z,99020.97
2018-07-20T13:27:09.996Z,99009.83
2018-07-20T13:29:39.706Z,99015.55
2018-07-20T13:32:09.758Z,99019.94
2018-07-20T13:34:39.391Z,99013.62
2018-07-20T13:37:09.778Z,99014.02
2018-07-20T13:39:39.754Z,99013.55
2018-07-20T13:42:09.338Z,99013.28
2018-07-20T13:44:38.916Z,99012.06
2018-07-20T13:47:09.519Z,99007.41
2018-07-20T13:49:40.294Z,99008.00
2018-07-20T13:52:09.953Z,98995.95
2018-07-20T13:54:41.318Z,98994.79
2018-07-20T13:57:11.264Z,98991.87
2018-07-20T13:59:41.424Z,98985.73
2018-07-20T14:02:12.189Z,98986.88
2018-07-20T14:04:41.998Z,98988.29
2018-07-20T14:07:13.729Z,98984.59
2018-07-20T14:09:44.316Z,98976.45
2018-07-20T14:12:14.717Z,98981.46
2018-07-20T14:14:44.584Z,98979.09
2018-07-20T14:17:15.010Z,98974.56
2018-07-20T14:19:45.331Z,98971.86
2018-07-20T14:22:15.980Z,98963.82
2018-07-20T14:24:46.002Z,98958.47
2018-07-20T14:27:16.051Z,98959.25
2018-07-20T14:29:45.627Z,98960.77
2018-07-20T14:32:16.701Z,98955.13
2018-07-20T14:34:46.665Z,98952.22
2018-07-20T14:37:21.664Z,98952.80
2018-07-20T14:39:53.298Z,98940.86
2018-07-20T14:42:23.711Z,98946.66
2018-07-20T14:44:53.890Z,98951.67
2018-07-20T14:47:24.215Z,98941.27
2018-07-20T14:49:56.433Z,98934.24
2018-07-20T14:52:30.576Z,98927.06
2018-07-20T14:55:02.863Z,98920.39
2018-07-20T14:57:33.669Z,98923.98
2018-07-20T15:00:05.859Z,98919.76
2018-07-20T15:02:38.004Z,98924.03
2018-07-20T15:05:10.568Z,98915.88
2018-07-20T15:07:41.119Z,98913.36
2018-07-20T15:10:12.860Z,98913.73
2018-07-20T15:12:46.381Z,98902.98
2018-07-20T15:15:19.607Z,98913.73
2018-07-20T15:17:51.917Z,98902.03
2018-07-20T15:20:23.948Z,98900.66
2018-07-20T15:22:55.112Z,98906.69
2018-07-20T15:25:29.170Z,98904.36
2018-07-20T15:28:04.022Z,98900.84
2018-07-20T15:30:40.634Z,98900.28
2018-07-20T15:33:10.395Z,98892.08
2018-07-20T15:35:40.246Z,98904.58
2018-07-20T15:38:10.045Z,98890.17
2018-07-20T15:40:39.648Z,98889.77
2018-07-20T15:43:09.752Z,98887.25
2018-07-20T15:45:51.920Z,98891.11
2018-07-20T15:48:14.770Z,98888.14
2018-07-20T15:50:46.258Z,98884.23
2018-07-20T15:53:42.949Z,98885.56
2018-07-20T15:55:45.679Z,98889.05
2018-07-20T15:58:17.555Z,98886.61
2018-07-20T16:00:49.043Z,98893.70
2018-07-20T16:03:21.078Z,98888.55
2018-07-20T16:05:52.216Z,98891.80
2018-07-20T16:08:23.030Z,98888.98
2018-07-20T16:10:53.975Z,98893.58
2018-07-20T16:13:24.123Z,98888.33
2018-07-20T16:15:54.095Z,98887.06
2018-07-20T16:18:24.394Z,98887.42
2018-07-20T16:20:54.222Z,98854.97
2018-07-20T16:23:24.318Z,98887.69
2018-07-20T16:25:54.870Z,98886.70
2018-07-20T16:28:24.591Z,98886.52
2018-07-20T16:30:54.121Z,98881.55
2018-07-20T16:33:26.290Z,98877.86
2018-07-20T16:35:56.951Z,98878.58
2018-07-20T16:38:28.099Z,98875.88
2018-07-20T16:41:00.717Z,98873.45
2018-07-20T16:43:33.744Z,98867.74
2018-07-20T16:46:03.470Z,98869.02
2018-07-20T16:48:33.657Z,98869.33
2018-07-20T16:51:03.337Z,98864.14
2018-07-20T16:53:34.515Z,98864.40
2018-07-20T16:56:04.487Z,98856.30
2018-07-20T16:58:34.306Z,98855.86
2018-07-20T17:01:04.484Z,98854.24
2018-07-20T17:03:34.874Z,98850.28
2018-07-20T17:06:07.261Z,98853.86
2018-07-20T17:08:39.013Z,98845.77
2018-07-20T17:11:11.064Z,98847.30
2018-07-20T17:13:45.054Z,98844.89
2018-07-20T17:16:15.912Z,98845.67
2018-07-20T17:18:50.720Z,98841.86
2018-07-20T17:21:21.525Z,98846.03
2018-07-20T17:23:52.535Z,98849.33
2018-07-20T17:26:23.731Z,98851.74
2018-07-20T17:28:54.415Z,98848.28
2018-07-20T17:31:24.294Z,98849.56
2018-07-20T17:33:54.716Z,98846.59
2018-07-20T17:36:25.519Z,98817.38
2018-07-20T17:38:55.253Z,98845.78
2018-07-20T17:41:25.219Z,98841.39
2018-07-20T17:43:55.364Z,98838.11
2018-07-20T17:46:25.028Z,98847.44
2018-07-20T17:48:54.943Z,98844.92
2018-07-20T17:51:24.763Z,98841.42
2018-07-20T17:53:55.082Z,98842.37
2018-07-20T17:56:24.907Z,98841.46
2018-07-20T17:58:56.430Z,98843.74
2018-07-20T18:01:26.120Z,98843.34
2018-07-20T18:03:57.875Z,98850.00
2018-07-20T18:06:27.387Z,98850.08
2018-07-20T18:08:58.806Z,98821.64
2018-07-20T18:11:29.042Z,98854.89
2018-07-20T18:13:59.039Z,98821.33
2018-07-20T18:16:30.720Z,98854.66
2018-07-20T18:19:00.584Z,98849.92
2018-07-20T18:21:30.771Z,98847.91
2018-07-20T18:24:01.536Z,98846.50
2018-07-20T18:26:32.497Z,98848.31
2018-07-20T18:29:03.060Z,98849.47
2018-07-20T18:31:33.715Z,98847.66
2018-07-20T18:34:05.985Z,98851.80
2018-07-20T18:36:35.951Z,98845.33
2018-07-20T18:39:12.034Z,98852.89
2018-07-20T18:41:42.440Z,98855.42
2018-07-20T18:44:12.638Z,98856.95
2018-07-20T18:46:42.808Z,98859.84
2018-07-20T18:49:13.519Z,98861.02
2018-07-20T18:51:43.221Z,98863.27
2018-07-20T18:54:13.907Z,98858.64
2018-07-20T18:56:44.269Z,98861.24
2018-07-20T18:59:15.288Z,98861.55
2018-07-20T19:01:47.152Z,98859.30
2018-07-20T19:04:18.531Z,98865.95
2018-07-20T19:06:50.104Z,98865.16
2018-07-20T19:09:23.009Z,98864.32
2018-07-20T19:11:53.249Z,98866.58
2018-07-20T19:14:25.326Z,98863.38
2018-07-20T19:16:57.827Z,98868.20
2018-07-20T19:19:34.430Z,98869.70
2018-07-20T19:22:06.016Z,98873.27
2018-07-20T19:24:37.510Z,98870.34
2018-07-20T19:27:08.191Z,98866.52
2018-07-20T19:29:39.805Z,98867.08
2018-07-20T19:32:10.428Z,98868.73
2018-07-20T19:34:40.236Z,98872.86
2018-07-20T19:37:13.970Z,98874.98
2018-07-20T19:39:44.938Z,98870.82
2018-07-20T19:42:16.681Z,98877.38
2018-07-20T19:44:46.334Z,98874.09
2018-07-20T19:47:17.799Z,98871.85
2018-07-20T19:49:48.909Z,98882.91
2018-07-20T19:52:18.805Z,98887.47
2018-07-20T19:54:49.618Z,98890.28
2018-07-20T19:57:20.468Z,98893.98
2018-07-20T19:59:50.621Z,98897.63
2018-07-20T20:02:20.347Z,98902.45
2018-07-20T20:04:50.822Z,98901.67
2018-07-20T20:07:21.042Z,98904.74
2018-07-20T20:09:52.197Z,98906.13
2018-07-20T20:12:23.191Z,98905.66
2018-07-20T20:14:53.475Z,98897.91
2018-07-20T20:17:23.496Z,98903.77
2018-07-20T20:19:53.455Z,98911.94
2018-07-20T20:22:23.565Z,98907.86
2018-07-20T20:24:53.464Z,98910.06
2018-07-20T20:27:23.847Z,98903.62
2018-07-20T20:29:55.280Z,98904.64
2018-07-20T20:32:25.505Z,98895.98
2018-07-20T20:34:56.813Z,98902.64
2018-07-20T20:37:28.625Z,98909.56
2018-07-20T20:40:00.551Z,98903.51
2018-07-20T20:42:32.117Z,98899.59
2018-07-20T20:45:04.279Z,98896.02
2018-07-20T20:47:37.328Z,98892.82
2018-07-20T20:50:09.241Z,98889.73
2018-07-20T20:52:40.474Z,98893.99
2018-07-20T20:57:47.663Z,98888.48
2018-07-20T21:00:20.825Z,98880.62
2018-07-20T21:02:50.700Z,98884.81
2018-07-20T21:05:21.567Z,98876.05
2018-07-20T21:07:54.231Z,98843.18
2018-07-20T21:10:24.292Z,98886.69
2018-07-20T21:12:56.249Z,98887.55
2018-07-20T21:15:28.805Z,98886.86
2018-07-20T21:18:01.383Z,98886.38
2018-07-20T21:20:31.934Z,98887.40
2018-07-20T21:23:02.207Z,98888.48
2018-07-20T21:25:33.030Z,98891.47
2018-07-20T21:28:03.335Z,98889.41
2018-07-20T21:30:32.824Z,98891.48
2018-07-20T21:33:03.187Z,98900.47
2018-07-20T21:35:33.190Z,98901.02
2018-07-20T21:38:04.029Z,98897.45
2018-07-20T21:40:33.617Z,98895.70
2018-07-20T21:43:05.595Z,98899.41
2018-07-20T21:45:35.604Z,98905.01
2018-07-20T21:48:05.716Z,98907.11
2018-07-20T21:50:35.283Z,98905.68
2018-07-20T21:53:05.267Z,98912.07
2018-07-20T21:55:35.090Z,98910.73
2018-07-20T21:58:04.820Z,98916.10
2018-07-20T22:00:35.090Z,98918.02
2018-07-20T22:03:06.188Z,98918.53
2018-07-20T22:05:36.904Z,98919.58
2018-07-20T22:08:08.385Z,98928.70
2018-07-20T22:10:38.433Z,98928.39
2018-07-20T22:13:08.249Z,98925.94
2018-07-20T22:15:38.258Z,98924.93
2018-07-20T22:18:07.918Z,98921.91
2018-07-20T22:20:37.480Z,98929.34
2018-07-20T22:23:08.009Z,98921.99
2018-07-20T22:25:40.603Z,98917.91
2018-07-20T22:28:10.556Z,98917.99
2018-07-20T22:30:40.810Z,98920.42
2018-07-20T22:33:11.606Z,98921.05
2018-07-20T22:35:41.534Z,98922.09
2018-07-20T22:38:12.208Z,98923.98
2018-07-20T22:40:42.695Z,98927.75
2018-07-20T22:43:13.079Z,98936.24
2018-07-20T22:45:42.738Z,98931.66
2018-07-20T22:48:12.974Z,98937.00
2018-07-20T22:50:43.624Z,98933.67
2018-07-20T22:53:13.418Z,98935.94
2018-07-20T22:55:43.042Z,98931.52
2018-07-20T22:58:13.153Z,98932.44
2018-07-20T23:00:42.902Z,98937.79
2018-07-20T23:03:12.541Z,98932.33
2018-07-20T23:05:42.425Z,98935.48
2018-07-20T23:08:12.062Z,98933.84
2018-07-20T23:10:41.717Z,98931.00
2018-07-20T23:13:12.352Z,98935.48
2018-07-20T23:15:41.906Z,98931.73
2018-07-20T23:18:11.429Z,98928.16
2018-07-20T23:20:41.459Z,98924.39
2018-07-20T23:23:11.322Z,98921.18
2018-07-20T23:25:40.788Z,98917.59
2018-07-20T23:28:10.550Z,98919.55
2018-07-20T23:30:40.684Z,98921.27
2018-07-20T23:33:10.325Z,98922.56
2018-07-20T23:35:40.098Z,98918.14
2018-07-20T23:38:09.565Z,98919.09
2018-07-20T23:40:39.070Z,98921.77
2018-07-20T23:43:08.606Z,98914.66
2018-07-20T23:45:38.570Z,98921.50
2018-07-20T23:48:08.018Z,98912.78
2018-07-20T23:50:37.617Z,98908.06
2018-07-20T23:53:07.861Z,98903.60
2018-07-20T23:55:37.480Z,98904.47
2018-07-20T23:58:07.468Z,98897.05
